createdAt,value
2022-09-22T00:01:26.087Z,12.32
2022-09-22T00:03:59.177Z,12.64
2022-09-22T00:06:28.666Z,12.67
2022-09-22T00:09:00.570Z,12.62
2022-09-22T00:11:30.755Z,12.61
2022-09-22T00:14:04.773Z,12.66
2022-09-22T00:16:37.953Z,12.71
2022-09-22T00:19:16.880Z,12.56
2022-09-22T00:21:44.708Z,12.58
2022-09-22T00:24:11.654Z,12.72
2022-09-22T00:26:39.167Z,12.53
2022-09-22T00:29:10.923Z,12.32
2022-09-22T00:31:40.468Z,12.23
2022-09-22T00:34:09.038Z,12.22
2022-09-22T00:36:35.819Z,12.15
2022-09-22T00:39:02.615Z,12.12
2022-09-22T00:41:32.497Z,12.18
2022-09-22T00:44:18.648Z,12.14
2022-09-22T00:46:56.824Z,12.19
2022-09-22T00:49:38.193Z,12.18
2022-09-22T00:52:06.188Z,12.09
2022-09-22T00:54:34.100Z,12.08
2022-09-22T00:57:07.032Z,12.00
2022-09-22T00:59:34.126Z,12.09
2022-09-22T01:02:01.018Z,12.22
2022-09-22T01:04:28.971Z,12.36
2022-09-22T01:06:57.974Z,12.43
2022-09-22T01:09:25.743Z,12.36
2022-09-22T01:11:52.962Z,12.52
2022-09-22T01:14:28.775Z,12.56
2022-09-22T01:17:12.841Z,12.59
2022-09-22T01:20:23.811Z,12.70
2022-09-22T01:23:03.707Z,12.51
2022-09-22T01:26:11.101Z,12.63
2022-09-22T01:28:54.093Z,12.56
2022-09-22T01:31:27.967Z,12.55
2022-09-22T01:34:14.371Z,12.26
2022-09-22T01:36:55.223Z,12.34
2022-09-22T01:39:57.962Z,12.23
2022-09-22T01:42:37.113Z,11.93
2022-09-22T01:45:10.448Z,11.94
2022-09-22T01:48:09.694Z,11.84
2022-09-22T01:50:43.406Z,11.77
2022-09-22T01:53:15.757Z,11.67
2022-09-22T01:55:48.438Z,11.69
2022-09-22T01:58:19.440Z,11.80
2022-09-22T02:00:56.697Z,11.83
2022-09-22T02:03:33.748Z,12.02
2022-09-22T02:06:09.049Z,11.91
2022-09-22T02:08:41.700Z,12.02
2022-09-22T02:11:16.200Z,12.05
2022-09-22T02:13:47.250Z,12.27
2022-09-22T02:16:19.009Z,12.09
2022-09-22T02:19:13.087Z,12.04
2022-09-22T02:21:44.105Z,12.19
2022-09-22T02:24:32.657Z,12.19
2022-09-22T02:27:03.804Z,12.04
2022-09-22T02:29:35.303Z,12.13
2022-09-22T02:32:07.926Z,12.16
2022-09-22T02:34:35.068Z,12.26
2022-09-22T02:37:39.238Z,12.34
2022-09-22T02:40:10.062Z,12.41
2022-09-22T02:43:26.508Z,12.24
2022-09-22T02:46:06.718Z,12.30
2022-09-22T02:48:40.437Z,12.37
2022-09-22T02:51:07.970Z,12.38
2022-09-22T02:53:35.629Z,12.28
2022-09-22T02:56:04.498Z,12.22
2022-09-22T02:58:31.598Z,12.31
2022-09-22T03:00:58.411Z,12.32
2022-09-22T03:03:25.217Z,12.21
2022-09-22T03:05:52.321Z,12.21
2022-09-22T03:08:19.128Z,12.22
2022-09-22T03:10:46.233Z,12.27
2022-09-22T03:13:17.385Z,12.26
2022-09-22T03:15:45.986Z,12.27
2022-09-22T03:18:13.713Z,12.19
2022-09-22T03:20:40.738Z,12.18
2022-09-22T03:23:07.946Z,12.16
2022-09-22T03:25:35.035Z,12.11
2022-09-22T03:28:02.218Z,12.14
2022-09-22T03:30:29.368Z,12.06
2022-09-22T03:32:56.342Z,11.95
2022-09-22T03:35:23.103Z,11.92
2022-09-22T03:37:50.023Z,12.04
2022-09-22T03:40:17.009Z,12.03
2022-09-22T03:42:44.711Z,12.01
2022-09-22T03:45:15.460Z,11.87
2022-09-22T03:47:42.644Z,11.91
2022-09-22T03:50:10.184Z,11.82
2022-09-22T03:52:37.049Z,11.82
2022-09-22T03:55:04.036Z,12.04
2022-09-22T03:57:30.786Z,11.97
2022-09-22T03:59:57.735Z,11.88
2022-09-22T04:02:24.606Z,11.86
2022-09-22T04:04:51.580Z,11.76
2022-09-22T04:07:18.505Z,11.81
2022-09-22T04:09:45.327Z,11.85
2022-09-22T04:12:12.158Z,11.66
2022-09-22T04:14:39.005Z,11.73
2022-09-22T04:17:06.062Z,11.63
2022-09-22T04:19:35.705Z,11.55
2022-09-22T04:22:03.801Z,11.60
2022-09-22T04:24:30.829Z,11.53
2022-09-22T04:27:18.647Z,11.44
2022-09-22T04:29:44.338Z,11.39
2022-09-22T04:32:11.120Z,11.32
2022-09-22T04:34:37.951Z,11.28
2022-09-22T04:37:04.880Z,11.53
2022-09-22T04:39:31.655Z,11.59
2022-09-22T04:41:58.423Z,11.54
2022-09-22T04:44:25.246Z,11.16
2022-09-22T04:46:52.059Z,11.02
2022-09-22T04:49:19.232Z,11.05
2022-09-22T04:51:46.046Z,11.02
2022-09-22T04:54:14.801Z,10.85
2022-09-22T04:56:42.838Z,10.90
2022-09-22T04:59:10.129Z,10.83
2022-09-22T05:01:36.971Z,10.68
2022-09-22T05:04:04.237Z,10.80
2022-09-22T05:06:31.199Z,10.73
2022-09-22T05:08:58.628Z,10.50
2022-09-22T05:11:25.769Z,10.43
2022-09-22T05:13:52.576Z,10.52
2022-09-22T05:16:19.568Z,10.54
2022-09-22T05:18:46.572Z,10.57
2022-09-22T05:21:13.357Z,10.47
2022-09-22T05:23:40.152Z,10.44
2022-09-22T05:26:07.066Z,10.35
2022-09-22T05:28:33.946Z,10.34
2022-09-22T05:31:01.055Z,10.43
2022-09-22T05:33:27.970Z,10.44
2022-09-22T05:35:54.904Z,10.50
2022-09-22T05:38:21.778Z,10.42
2022-09-22T05:40:48.646Z,10.41
2022-09-22T05:43:16.053Z,10.40
2022-09-22T05:45:44.115Z,10.48
2022-09-22T05:48:11.076Z,10.64
2022-09-22T05:50:38.179Z,10.77
2022-09-22T05:53:08.411Z,10.96
2022-09-22T05:55:35.503Z,11.06
2022-09-22T05:58:02.599Z,11.25
2022-09-22T06:00:29.864Z,11.12
2022-09-22T06:02:56.833Z,11.10
2022-09-22T06:05:24.208Z,11.20
2022-09-22T06:08:03.613Z,11.14
2022-09-22T06:10:32.247Z,11.20
2022-09-22T06:13:09.460Z,11.33
2022-09-22T06:15:36.657Z,11.41
2022-09-22T06:18:07.128Z,11.46
2022-09-22T06:20:34.946Z,11.34
2022-09-22T06:23:02.708Z,11.49
2022-09-22T06:25:29.763Z,11.36
2022-09-22T06:28:05.230Z,11.30
2022-09-22T06:30:33.852Z,11.61
2022-09-22T06:33:00.770Z,11.58
2022-09-22T06:35:36.547Z,11.65
2022-09-22T06:38:06.306Z,11.49
2022-09-22T06:40:36.312Z,11.71
2022-09-22T06:43:13.000Z,11.57
2022-09-22T06:45:40.558Z,11.68
2022-09-22T06:48:10.068Z,11.78
2022-09-22T06:50:54.856Z,11.65
2022-09-22T06:53:40.001Z,11.96
2022-09-22T06:56:08.598Z,11.92
2022-09-22T06:58:58.693Z,12.11
2022-09-22T07:01:23.884Z,12.08
2022-09-22T07:03:52.399Z,12.04
2022-09-22T07:06:20.397Z,12.43
2022-09-22T07:08:48.568Z,12.75
2022-09-22T07:11:17.866Z,12.89
2022-09-22T07:13:46.331Z,12.33
2022-09-22T07:16:18.135Z,12.48
2022-09-22T07:18:49.886Z,12.62
2022-09-22T07:21:26.370Z,12.56
2022-09-22T07:23:57.708Z,12.88
2022-09-22T07:26:28.807Z,12.85
2022-09-22T07:28:59.115Z,13.50
2022-09-22T07:31:28.986Z,13.07
2022-09-22T07:33:56.828Z,13.12
2022-09-22T07:36:28.536Z,13.27
2022-09-22T07:38:58.637Z,13.44
2022-09-22T07:41:28.986Z,13.15
2022-09-22T07:44:18.088Z,13.39
2022-09-22T07:46:45.839Z,13.52
2022-09-22T07:49:15.263Z,14.11
2022-09-22T07:51:42.966Z,14.01
2022-09-22T07:54:09.860Z,13.91
2022-09-22T07:56:41.759Z,13.52
2022-09-22T07:59:11.227Z,13.90
2022-09-22T08:01:42.089Z,14.02
2022-09-22T08:04:13.998Z,14.32
2022-09-22T08:06:40.787Z,14.62
2022-09-22T08:09:08.239Z,14.82
2022-09-22T08:11:35.228Z,14.62
2022-09-22T08:14:04.880Z,14.64
2022-09-22T08:16:34.302Z,14.71
2022-09-22T08:19:10.691Z,14.93
2022-09-22T08:21:47.967Z,14.90
2022-09-22T08:24:21.003Z,14.77
2022-09-22T08:26:53.027Z,15.06
2022-09-22T08:29:21.081Z,15.72
2022-09-22T08:31:49.449Z,16.15
2022-09-22T08:34:17.978Z,16.12
2022-09-22T08:36:49.110Z,16.01
2022-09-22T08:39:17.875Z,16.37
2022-09-22T08:41:55.339Z,16.20
2022-09-22T08:44:54.524Z,16.06
2022-09-22T08:47:54.200Z,16.06
2022-09-22T08:51:14.873Z,15.81
2022-09-22T08:53:47.737Z,16.18
2022-09-22T08:56:57.981Z,16.60
2022-09-22T08:59:37.258Z,16.52
2022-09-22T09:03:00.361Z,16.80
2022-09-22T09:06:09.250Z,16.52
2022-09-22T09:09:05.312Z,16.62
2022-09-22T09:11:55.338Z,17.05
2022-09-22T09:14:34.746Z,16.94
2022-09-22T09:17:23.145Z,17.28
2022-09-22T09:20:10.193Z,17.57
2022-09-22T09:22:45.028Z,17.08
2022-09-22T09:25:35.014Z,17.49
2022-09-22T09:28:06.917Z,17.31
2022-09-22T09:30:44.722Z,17.10
2022-09-22T09:33:29.703Z,17.33
2022-09-22T09:35:57.126Z,17.73
2022-09-22T09:38:35.512Z,17.81
2022-09-22T09:41:14.497Z,18.13
2022-09-22T09:43:45.672Z,18.52
2022-09-22T09:46:26.635Z,18.80
2022-09-22T09:49:10.570Z,18.89
2022-09-22T09:51:40.835Z,19.28
2022-09-22T09:54:14.465Z,18.91
2022-09-22T09:57:08.495Z,18.94
2022-09-22T09:59:56.067Z,19.50
2022-09-22T10:02:30.315Z,18.82
2022-09-22T10:05:01.214Z,19.13
2022-09-22T10:10:23.381Z,19.38
2022-09-22T10:12:50.237Z,19.66
2022-09-22T10:15:26.158Z,19.99
2022-09-22T10:17:53.062Z,20.31
2022-09-22T10:20:26.260Z,20.31
2022-09-22T10:22:54.429Z,20.66
2022-09-22T10:25:30.157Z,20.71
2022-09-22T10:28:16.918Z,20.67
2022-09-22T10:30:46.410Z,20.95
2022-09-22T10:33:14.990Z,20.52
2022-09-22T10:35:45.279Z,21.31
2022-09-22T10:38:19.812Z,21.58
2022-09-22T10:40:52.947Z,20.99
2022-09-22T10:43:55.111Z,21.02
2022-09-22T10:46:37.052Z,20.93
2022-09-22T10:49:13.512Z,21.24
2022-09-22T10:52:00.549Z,21.53
2022-09-22T10:54:34.223Z,21.18
2022-09-22T10:57:09.464Z,21.22
2022-09-22T11:00:02.341Z,21.23
2022-09-22T11:02:47.366Z,21.46
2022-09-22T11:05:53.617Z,22.52
2022-09-22T11:08:39.481Z,21.42
2022-09-22T11:11:45.624Z,21.01
2022-09-22T11:14:31.053Z,20.73
2022-09-22T11:17:37.503Z,21.13
2022-09-22T11:20:16.699Z,21.25
2022-09-22T11:22:56.374Z,20.75
2022-09-22T11:25:43.419Z,20.27
2022-09-22T11:28:45.492Z,20.04
2022-09-22T11:31:23.590Z,20.68
2022-09-22T11:34:21.087Z,20.69
2022-09-22T11:37:27.777Z,21.34
2022-09-22T11:40:18.609Z,21.22
2022-09-22T11:43:33.176Z,21.58
2022-09-22T11:46:18.801Z,21.41
2022-09-22T11:48:45.629Z,22.08
2022-09-22T11:51:21.146Z,22.33
2022-09-22T11:53:53.898Z,22.50
2022-09-22T11:56:33.084Z,22.77
2022-09-22T11:59:05.770Z,22.54
2022-09-22T12:01:38.046Z,21.80
2022-09-22T12:04:29.836Z,21.76
2022-09-22T12:07:00.228Z,22.10
2022-09-22T12:09:36.840Z,22.21
2022-09-22T12:12:06.198Z,22.66
2022-09-22T12:14:35.140Z,22.55
2022-09-22T12:17:11.596Z,22.39
2022-09-22T12:22:34.853Z,22.22
2022-09-22T12:25:01.736Z,22.51
2022-09-22T12:27:30.169Z,22.74
2022-09-22T12:30:04.323Z,22.39
2022-09-22T12:32:37.074Z,21.55
2022-09-22T12:35:05.501Z,21.56
2022-09-22T12:37:36.327Z,21.29
2022-09-22T12:40:18.698Z,22.29
2022-09-22T12:42:50.754Z,22.66
2022-09-22T12:45:33.369Z,22.41
2022-09-22T12:48:13.529Z,21.71
2022-09-22T12:50:42.667Z,21.55
2022-09-22T12:53:26.038Z,22.10
2022-09-22T12:55:55.056Z,22.99
2022-09-22T12:58:22.413Z,23.33
2022-09-22T13:01:16.703Z,22.73
2022-09-22T13:03:51.244Z,22.37
2022-09-22T13:06:24.122Z,21.43
2022-09-22T13:08:53.891Z,21.73
2022-09-22T13:11:58.963Z,21.71
2022-09-22T13:14:53.767Z,22.44
2022-09-22T13:17:42.119Z,22.92
2022-09-22T13:20:16.085Z,22.36
2022-09-22T13:22:43.515Z,22.04
2022-09-22T13:25:21.885Z,22.45
2022-09-22T13:27:51.413Z,22.58
2022-09-22T13:30:18.402Z,22.52
2022-09-22T13:32:51.144Z,22.82
2022-09-22T13:35:30.694Z,23.22
2022-09-22T13:37:59.389Z,23.28
2022-09-22T13:40:29.476Z,23.09
2022-09-22T13:43:00.747Z,23.34
2022-09-22T13:45:28.037Z,23.51
2022-09-22T13:48:08.306Z,23.35
2022-09-22T13:50:46.126Z,23.56
2022-09-22T13:53:18.209Z,23.35
2022-09-22T13:55:49.085Z,23.66
2022-09-22T13:58:22.797Z,23.97
2022-09-22T14:01:14.217Z,23.46
2022-09-22T14:03:41.670Z,23.50
2022-09-22T14:06:13.769Z,23.42
2022-09-22T14:08:41.675Z,23.03
2022-09-22T14:11:16.259Z,23.30
2022-09-22T14:13:55.168Z,24.12
2022-09-22T14:16:37.329Z,23.62
2022-09-22T14:19:16.978Z,23.36
2022-09-22T14:21:57.381Z,23.22
2022-09-22T14:24:25.382Z,23.81
2022-09-22T14:26:54.914Z,23.74
2022-09-22T14:29:24.714Z,24.22
2022-09-22T14:31:59.222Z,23.79
2022-09-22T14:34:32.663Z,24.21
2022-09-22T14:37:16.194Z,24.27
2022-09-22T14:39:44.833Z,24.46
2022-09-22T14:42:21.199Z,24.48
2022-09-22T14:44:50.285Z,24.65
2022-09-22T14:47:30.236Z,24.44
2022-09-22T14:50:10.683Z,24.86
2022-09-22T14:52:46.343Z,24.99
2022-09-22T14:55:30.432Z,24.59
2022-09-22T14:58:02.188Z,24.31
2022-09-22T15:00:47.647Z,23.99
2022-09-22T15:03:22.157Z,23.85
2022-09-22T15:05:50.375Z,23.43
2022-09-22T15:08:25.075Z,23.48
2022-09-22T15:10:57.648Z,22.74
2022-09-22T15:13:36.509Z,22.76
2022-09-22T15:16:04.479Z,22.88
2022-09-22T15:18:31.381Z,22.66
2022-09-22T15:21:11.486Z,23.07
2022-09-22T15:23:45.259Z,23.16
2022-09-22T15:26:17.898Z,23.33
2022-09-22T15:28:48.494Z,23.47
2022-09-22T15:31:29.539Z,23.48
2022-09-22T15:34:00.055Z,23.71
2022-09-22T15:36:31.954Z,23.73
2022-09-22T15:39:06.317Z,23.56
2022-09-22T15:41:34.599Z,23.92
2022-09-22T15:44:02.411Z,23.10
2022-09-22T15:46:34.265Z,23.62
2022-09-22T15:49:22.385Z,23.08
2022-09-22T15:51:49.949Z,23.22
2022-09-22T15:54:19.071Z,23.37
2022-09-22T15:56:48.794Z,23.81
2022-09-22T15:59:22.515Z,23.74
2022-09-22T16:01:51.891Z,23.23
2022-09-22T16:04:20.179Z,23.03
2022-09-22T16:06:55.571Z,22.84
2022-09-22T16:09:22.580Z,22.67
2022-09-22T16:11:49.961Z,22.58
2022-09-22T16:14:17.360Z,22.27
2022-09-22T16:16:44.226Z,22.10
2022-09-22T16:19:11.616Z,21.83
2022-09-22T16:21:40.576Z,21.86
2022-09-22T16:24:11.617Z,21.88
2022-09-22T16:26:40.242Z,21.74
2022-09-22T16:29:08.374Z,22.10
2022-09-22T16:31:36.357Z,21.89
2022-09-22T16:34:04.918Z,21.79
2022-09-22T16:36:35.128Z,21.80
2022-09-22T16:39:03.550Z,21.70
2022-09-22T16:41:37.212Z,21.50
2022-09-22T16:44:05.049Z,21.45
2022-09-22T16:46:37.901Z,21.24
2022-09-22T16:49:12.889Z,21.28
2022-09-22T16:51:48.874Z,21.03
2022-09-22T16:54:17.703Z,21.02
2022-09-22T16:56:47.217Z,21.07
2022-09-22T16:59:16.508Z,20.96
2022-09-22T17:01:44.099Z,20.91
2022-09-22T17:04:13.510Z,20.73
2022-09-22T17:06:41.655Z,20.44
2022-09-22T17:09:09.663Z,20.22
2022-09-22T17:11:40.625Z,19.99
2022-09-22T17:14:12.529Z,19.77
2022-09-22T17:16:48.434Z,19.78
2022-09-22T17:19:20.654Z,19.69
2022-09-22T17:21:49.544Z,19.65
2022-09-22T17:24:16.600Z,19.32
2022-09-22T17:26:48.967Z,18.98
2022-09-22T17:29:26.602Z,18.99
2022-09-22T17:31:59.379Z,18.91
2022-09-22T17:34:28.601Z,18.81
2022-09-22T17:36:56.498Z,18.80
2022-09-22T17:39:24.604Z,18.55
2022-09-22T17:41:52.317Z,18.34
2022-09-22T17:44:22.818Z,18.16
2022-09-22T17:47:09.899Z,17.94
2022-09-22T17:49:56.426Z,17.89
2022-09-22T17:52:32.047Z,17.74
2022-09-22T17:55:06.961Z,17.64
2022-09-22T17:57:36.654Z,17.47
2022-09-22T18:00:06.508Z,17.37
2022-09-22T18:02:37.357Z,17.32
2022-09-22T18:05:10.152Z,17.09
2022-09-22T18:07:40.278Z,17.32
2022-09-22T18:10:09.702Z,17.44
2022-09-22T18:12:37.055Z,17.44
2022-09-22T18:15:05.005Z,17.56
2022-09-22T18:17:40.214Z,17.51
2022-09-22T18:20:10.323Z,17.37
2022-09-22T18:22:38.549Z,17.37
2022-09-22T18:25:06.213Z,17.27
2022-09-22T18:27:32.988Z,16.84
2022-09-22T18:29:59.907Z,16.77
2022-09-22T18:32:28.033Z,16.55
2022-09-22T18:34:55.313Z,16.69
2022-09-22T18:37:26.380Z,16.67
2022-09-22T18:39:54.142Z,16.64
2022-09-22T18:42:24.341Z,16.66
2022-09-22T18:44:51.980Z,16.66
2022-09-22T18:47:21.037Z,16.69
2022-09-22T18:49:50.047Z,16.56
2022-09-22T18:52:21.564Z,16.15
2022-09-22T18:54:48.842Z,16.24
2022-09-22T18:57:15.715Z,16.46
2022-09-22T18:59:42.518Z,16.15
2022-09-22T19:02:11.847Z,16.26
2022-09-22T19:04:39.513Z,16.26
2022-09-22T19:07:24.854Z,16.36
2022-09-22T19:09:52.974Z,16.19
2022-09-22T19:12:21.562Z,16.14
2022-09-22T19:14:50.108Z,16.22
2022-09-22T19:17:18.009Z,16.14
2022-09-22T19:19:46.672Z,16.15
2022-09-22T19:22:13.570Z,16.02
2022-09-22T19:24:41.324Z,16.05
2022-09-22T19:27:09.196Z,16.02
2022-09-22T19:29:36.583Z,15.87
2022-09-22T19:32:05.397Z,15.82
2022-09-22T19:34:33.054Z,15.82
2022-09-22T19:37:00.167Z,15.62
2022-09-22T19:39:27.147Z,15.60
2022-09-22T19:41:54.902Z,15.43
2022-09-22T19:44:22.935Z,15.41
2022-09-22T19:46:50.572Z,15.50
2022-09-22T19:49:18.067Z,15.62
2022-09-22T19:51:44.968Z,15.59
2022-09-22T19:54:12.109Z,15.60
2022-09-22T19:56:39.319Z,15.65
2022-09-22T19:59:07.265Z,15.69
2022-09-22T20:01:37.695Z,15.70
2022-09-22T20:04:05.529Z,15.63
2022-09-22T20:06:33.660Z,15.43
2022-09-22T20:09:03.728Z,15.39
2022-09-22T20:11:41.063Z,15.74
2022-09-22T20:14:20.141Z,15.76
2022-09-22T20:16:48.210Z,15.73
2022-09-22T20:19:15.242Z,15.76
2022-09-22T20:21:43.883Z,15.68
2022-09-22T20:24:15.899Z,15.69
2022-09-22T20:26:45.005Z,15.66
2022-09-22T20:29:13.786Z,15.73
2022-09-22T20:31:41.618Z,15.65
2022-09-22T20:34:13.553Z,15.62
2022-09-22T20:36:43.022Z,15.56
2022-09-22T20:39:15.280Z,15.52
2022-09-22T20:41:43.055Z,15.54
2022-09-22T20:44:14.639Z,15.47
2022-09-22T20:46:42.637Z,15.40
2022-09-22T20:49:13.740Z,15.48
2022-09-22T20:51:43.131Z,15.51
2022-09-22T20:54:10.184Z,15.43
2022-09-22T20:56:40.811Z,15.44
2022-09-22T20:59:09.772Z,15.29
2022-09-22T21:01:36.894Z,15.30
2022-09-22T21:04:03.774Z,15.27
2022-09-22T21:06:31.134Z,15.28
2022-09-22T21:09:16.802Z,15.16
2022-09-22T21:11:44.146Z,15.17
2022-09-22T21:14:11.223Z,15.14
2022-09-22T21:16:40.000Z,15.17
2022-09-22T21:19:07.629Z,15.19
2022-09-22T21:21:37.695Z,14.70
2022-09-22T21:24:04.927Z,14.42
2022-09-22T21:26:31.790Z,14.61
2022-09-22T21:28:59.577Z,14.59
2022-09-22T21:31:27.273Z,14.42
2022-09-22T21:33:54.384Z,14.61
2022-09-22T21:36:23.378Z,14.59
2022-09-22T21:38:59.059Z,14.66
2022-09-22T21:41:28.579Z,14.60
2022-09-22T21:43:55.809Z,14.59
2022-09-22T21:46:24.710Z,14.70
2022-09-22T21:48:55.222Z,14.60
2022-09-22T21:51:22.144Z,14.49
2022-09-22T21:53:52.850Z,14.47
2022-09-22T21:56:22.751Z,14.48
2022-09-22T21:58:52.093Z,14.54
2022-09-22T22:01:22.204Z,14.33
2022-09-22T22:03:51.142Z,14.54
2022-09-22T22:06:22.748Z,14.53
2022-09-22T22:09:03.440Z,14.49
2022-09-22T22:11:35.271Z,14.44
2022-09-22T22:14:04.496Z,14.51
2022-09-22T22:16:34.229Z,14.57
2022-09-22T22:19:02.099Z,14.56
2022-09-22T22:21:30.379Z,14.51
2022-09-22T22:24:19.329Z,14.52
2022-09-22T22:26:56.800Z,14.49
2022-09-22T22:29:25.796Z,14.41
2022-09-22T22:31:53.265Z,14.32
2022-09-22T22:34:22.805Z,14.41
2022-09-22T22:36:49.676Z,14.31
2022-09-22T22:39:16.689Z,14.45
2022-09-22T22:41:44.512Z,14.52
2022-09-22T22:44:17.821Z,14.44
2022-09-22T22:46:46.008Z,14.39
2022-09-22T22:49:13.139Z,14.36
2022-09-22T22:51:43.089Z,14.42
2022-09-22T22:54:11.322Z,14.37
2022-09-22T22:56:42.048Z,14.37
2022-09-22T22:59:09.944Z,14.32
2022-09-22T23:01:36.902Z,14.25
2022-09-22T23:04:05.927Z,14.27
2022-09-22T23:06:36.214Z,14.40
2022-09-22T23:09:05.237Z,14.22
2022-09-22T23:11:37.091Z,14.19
2022-09-22T23:14:06.156Z,14.36
2022-09-22T23:16:36.262Z,14.22
2022-09-22T23:19:07.247Z,14.32
2022-09-22T23:21:35.307Z,14.18
2022-09-22T23:24:03.142Z,14.28
2022-09-22T23:26:30.401Z,14.08
2022-09-22T23:29:01.618Z,13.96
2022-09-22T23:31:28.698Z,14.01
2022-09-22T23:33:57.653Z,14.06
2022-09-22T23:36:26.374Z,13.96
2022-09-22T23:38:54.297Z,14.09
2022-09-22T23:41:21.168Z,14.05
2022-09-22T23:43:47.954Z,13.96
2022-09-22T23:46:14.952Z,13.97
2022-09-22T23:48:41.813Z,13.86
2022-09-22T23:51:08.633Z,13.60
2022-09-22T23:53:36.708Z,13.78
2022-09-22T23:56:05.672Z,13.80
2022-09-22T23:58:33.578Z,13.75
